Time;durP1;ratioP1;P1;durP2;ratioP2;P2;SDS_P1;SDS_P2;PMS_P1;PMS_P2;Temp;Humidity;BMP_temperature;BMP_pressure;BME280_temperature;BME280_humidity;BME280_pressure;Samples;Min_cycle;Max_cycle;Signal;HPM_P1;HPM_P2
2022/01/27 00:01:17;;;;;;;0.60;0.60;;;1.20;99.90;;;;;;5015693;28;20289;-79
2022/01/27 00:03:50;;;;;;;0.60;0.60;;;1.10;99.90;;;;;;5014998;28;20574;-78
2022/01/27 00:06:17;;;;;;;0.50;0.50;;;1.10;99.90;;;;;;5011811;28;20725;-79
2022/01/27 00:08:48;;;;;;;0.70;0.70;;;1.00;99.90;;;;;;5014518;28;20214;-78
2022/01/27 00:11:15;;;;;;;0.70;0.70;;;1.00;99.90;;;;;;5011869;28;20666;-78
2022/01/27 00:13:48;;;;;;;0.70;0.70;;;0.90;99.90;;;;;;5012286;28;20205;-78
2022/01/27 00:16:23;;;;;;;0.60;0.60;;;0.90;99.90;;;;;;5012372;28;20284;-78
2022/01/27 00:18:50;;;;;;;0.60;0.60;;;0.80;99.90;;;;;;5012264;28;20237;-78
2022/01/27 00:21:19;;;;;;;0.63;0.63;;;0.80;99.90;;;;;;5012478;28;20211;-78
2022/01/27 00:23:45;;;;;;;0.70;0.70;;;0.80;99.90;;;;;;5010949;28;20206;-77
2022/01/27 00:26:13;;;;;;;0.70;0.70;;;0.80;99.90;;;;;;5013247;28;20289;-77
2022/01/27 00:28:42;;;;;;;0.63;0.63;;;0.70;99.90;;;;;;5011839;28;20234;-77
2022/01/27 00:31:09;;;;;;;0.63;0.63;;;0.80;99.90;;;;;;5013252;28;20210;-78
2022/01/27 00:33:35;;;;;;;0.70;0.70;;;0.90;99.90;;;;;;5011632;28;20264;-78
2022/01/27 00:36:01;;;;;;;0.88;0.88;;;0.90;99.90;;;;;;5010701;28;20203;-78
2022/01/27 00:38:27;;;;;;;0.60;0.60;;;0.90;99.90;;;;;;5012615;28;20203;-78
2022/01/27 00:40:52;;;;;;;0.80;0.80;;;0.80;99.90;;;;;;5012989;28;20207;-77
2022/01/27 00:43:18;;;;;;;0.60;0.60;;;0.80;99.90;;;;;;5006202;28;20208;-78
2022/01/27 00:45:45;;;;;;;0.60;0.60;;;0.70;99.90;;;;;;5000830;28;20199;-78
2022/01/27 00:48:10;;;;;;;0.68;0.68;;;0.70;99.90;;;;;;5013342;28;20237;-78
2022/01/27 00:50:40;;;;;;;1.33;1.23;;;0.60;99.90;;;;;;5012443;28;20239;-78
2022/01/27 00:53:19;;;;;;;0.50;0.50;;;0.70;99.90;;;;;;5014144;28;20202;-78
2022/01/27 00:55:44;;;;;;;0.60;0.60;;;0.60;99.90;;;;;;5013184;28;20203;-77
2022/01/27 00:58:49;;;;;;;0.60;0.60;;;0.60;99.90;;;;;;5012595;28;20218;-78
2022/01/27 01:01:18;;;;;;;0.50;0.50;;;0.60;99.90;;;;;;5012631;28;20678;-78
2022/01/27 01:03:47;;;;;;;3.53;1.55;;;0.70;99.90;;;;;;5013346;28;20274;-79
2022/01/27 01:30:22;;;;;;;0.60;0.60;;;1.00;99.90;;;;;;5013890;28;20274;-78
2022/01/27 01:32:52;;;;;;;0.60;0.60;;;1.10;99.90;;;;;;5013866;28;20750;-77
2022/01/27 01:35:27;;;;;;;0.60;0.60;;;1.40;99.90;;;;;;5011127;28;20198;-78
2022/01/27 01:37:54;;;;;;;1.52;0.77;;;1.60;99.90;;;;;;5014055;28;20739;-78
2022/01/27 01:40:20;;;;;;;0.68;0.68;;;1.60;99.90;;;;;;5012601;28;20201;-78
2022/01/27 01:42:46;;;;;;;0.50;0.50;;;1.80;99.90;;;;;;5012029;28;20281;-78
2022/01/27 01:45:17;;;;;;;0.57;0.57;;;1.80;99.90;;;;;;5010700;28;20231;-77
2022/01/27 01:47:47;;;;;;;0.60;0.60;;;1.90;99.90;;;;;;5011704;28;20199;-78
2022/01/27 01:50:15;;;;;;;0.93;0.93;;;2.00;99.90;;;;;;5011653;28;20254;-78
2022/01/27 01:52:41;;;;;;;3.28;1.33;;;2.10;99.90;;;;;;5015439;28;20677;-78
2022/01/27 01:55:09;;;;;;;0.60;0.60;;;2.10;99.90;;;;;;5016194;28;20221;-78
2022/01/27 01:57:35;;;;;;;0.70;0.70;;;2.10;99.90;;;;;;5014489;28;20206;-78
2022/01/27 02:00:04;;;;;;;0.70;0.70;;;2.10;99.90;;;;;;5015944;28;20750;-78
2022/01/27 02:02:30;;;;;;;0.45;0.45;;;2.20;99.90;;;;;;5014572;28;20745;-78
2022/01/27 02:04:55;;;;;;;1.63;1.52;;;2.30;99.90;;;;;;5015862;28;20293;-78
2022/01/27 02:18:08;;;;;;;1.45;1.35;;;2.00;99.90;;;;;;5017217;28;20218;-78
2022/01/27 02:20:36;;;;;;;0.65;0.65;;;1.90;99.90;;;;;;5014765;28;20264;-78
2022/01/27 02:23:04;;;;;;;1.05;0.98;;;1.70;99.90;;;;;;5014988;28;20670;-79
2022/01/27 02:25:30;;;;;;;0.60;0.60;;;1.70;99.90;;;;;;5014695;28;20207;-79
2022/01/27 02:27:57;;;;;;;0.60;0.60;;;1.60;99.90;;;;;;5014840;28;20214;-78
2022/01/27 02:30:25;;;;;;;0.70;0.70;;;1.50;99.90;;;;;;5014666;28;20199;-79
2022/01/27 02:32:54;;;;;;;0.52;0.52;;;1.50;99.90;;;;;;5013770;28;20203;-79
2022/01/27 02:35:24;;;;;;;0.65;0.65;;;1.40;99.90;;;;;;5013908;28;20199;-78
2022/01/27 02:37:50;;;;;;;0.60;0.60;;;1.40;99.90;;;;;;4997367;28;20207;-79
2022/01/27 02:40:26;;;;;;;0.60;0.60;;;1.50;99.90;;;;;;5013792;28;20227;-80
2022/01/27 02:42:53;;;;;;;0.70;0.70;;;1.60;99.90;;;;;;5014202;28;20203;-79
2022/01/27 02:45:48;;;;;;;0.50;0.50;;;1.60;99.90;;;;;;4998872;28;20203;-79
2022/01/27 02:48:14;;;;;;;0.50;0.50;;;1.50;99.90;;;;;;4981951;28;20306;-79
2022/01/27 02:50:40;;;;;;;0.70;0.70;;;1.40;99.90;;;;;;5012861;28;20400;-80
2022/01/27 02:53:09;;;;;;;0.60;0.60;;;1.40;99.90;;;;;;5014581;28;20241;-79
2022/01/27 02:55:36;;;;;;;0.70;0.70;;;1.40;99.90;;;;;;5014541;28;20628;-80
2022/01/27 02:58:03;;;;;;;0.70;0.70;;;1.40;99.90;;;;;;5014345;28;20678;-79
2022/01/27 03:00:30;;;;;;;0.70;0.70;;;1.30;99.90;;;;;;5014205;28;20202;-79
2022/01/27 03:02:55;;;;;;;0.60;0.60;;;1.40;99.90;;;;;;5012770;28;20214;-79
2022/01/27 03:05:21;;;;;;;0.75;0.75;;;1.40;99.90;;;;;;5015272;28;20207;-78
2022/01/27 03:07:48;;;;;;;0.50;0.50;;;1.40;99.90;;;;;;5013943;28;20302;-79
2022/01/27 03:10:20;;;;;;;0.70;0.70;;;1.40;99.90;;;;;;5013879;28;20190;-78
2022/01/27 03:12:48;;;;;;;0.70;0.70;;;1.40;99.90;;;;;;5014394;28;20290;-79
2022/01/27 03:15:15;;;;;;;0.60;0.60;;;1.50;99.90;;;;;;5012971;28;20665;-79
2022/01/27 03:17:40;;;;;;;0.60;0.60;;;1.50;99.90;;;;;;5014340;28;20206;-78
2022/01/27 03:20:08;;;;;;;4.63;1.25;;;1.60;99.90;;;;;;5014417;28;20198;-78
2022/01/27 03:22:34;;;;;;;0.70;0.70;;;1.60;99.90;;;;;;5012840;28;20199;-79
2022/01/27 03:25:00;;;;;;;0.45;0.45;;;1.60;99.90;;;;;;5013883;28;20199;-79
2022/01/27 03:27:27;;;;;;;0.52;0.52;;;1.70;99.90;;;;;;5013816;28;20209;-80
2022/01/27 03:29:53;;;;;;;0.70;0.70;;;1.80;99.90;;;;;;5015193;28;20257;-79
2022/01/27 03:32:20;;;;;;;3.40;1.17;;;1.80;99.90;;;;;;5013794;28;20591;-79
2022/01/27 03:34:46;;;;;;;0.68;0.68;;;1.90;99.90;;;;;;5013848;28;20209;-78
2022/01/27 03:37:12;;;;;;;0.60;0.60;;;1.90;99.90;;;;;;5014875;28;20203;-78
2022/01/27 03:39:39;;;;;;;0.77;0.75;;;2.00;99.90;;;;;;5015874;28;20578;-79
2022/01/27 03:42:06;;;;;;;0.63;0.63;;;2.00;99.90;;;;;;5013407;28;20303;-78
2022/01/27 03:44:33;;;;;;;0.50;0.50;;;2.00;99.90;;;;;;5014141;28;20257;-79
2022/01/27 03:46:58;;;;;;;0.93;0.90;;;2.00;99.90;;;;;;5030225;28;20210;-79
2022/01/27 03:49:25;;;;;;;0.77;0.77;;;2.00;99.90;;;;;;5015181;28;20222;-78
2022/01/27 03:51:52;;;;;;;0.70;0.70;;;2.00;99.90;;;;;;5012715;28;20215;-79
2022/01/27 03:54:18;;;;;;;0.50;0.50;;;2.10;99.90;;;;;;5012625;28;20291;-79
2022/01/27 03:56:44;;;;;;;5.15;1.45;;;2.00;99.90;;;;;;5013519;28;20209;-79
2022/01/27 03:59:10;;;;;;;3.03;2.35;;;2.00;99.90;;;;;;5013585;28;20203;-78
2022/01/27 04:01:37;;;;;;;0.60;0.60;;;2.10;99.90;;;;;;5011069;28;20260;-77
2022/01/27 04:04:03;;;;;;;0.65;0.65;;;2.10;99.90;;;;;;5014474;28;20202;-76
2022/01/27 04:06:38;;;;;;;0.55;0.55;;;2.10;99.90;;;;;;5015634;28;20666;-78
2022/01/27 04:09:06;;;;;;;0.60;0.60;;;2.10;99.90;;;;;;5014140;28;20694;-78
2022/01/27 04:11:31;;;;;;;0.57;0.57;;;2.10;99.90;;;;;;5012775;28;20210;-80
2022/01/27 04:13:57;;;;;;;0.60;0.60;;;2.20;99.90;;;;;;5012622;28;20252;-79
2022/01/27 04:16:23;;;;;;;0.60;0.60;;;2.20;99.90;;;;;;5013447;28;20574;-78
2022/01/27 04:18:49;;;;;;;0.70;0.70;;;2.30;99.90;;;;;;5013411;28;20198;-79
2022/01/27 04:21:16;;;;;;;0.60;0.60;;;2.30;99.90;;;;;;5013395;28;20276;-79
2022/01/27 04:23:42;;;;;;;0.60;0.60;;;2.30;99.90;;;;;;5013518;28;20209;-78
2022/01/27 04:26:10;;;;;;;0.75;0.75;;;2.20;99.90;;;;;;5011996;28;20571;-79
2022/01/27 04:28:37;;;;;;;0.47;0.47;;;2.20;99.90;;;;;;5011493;28;20674;-78
2022/01/27 04:31:06;;;;;;;1.42;1.33;;;2.20;99.90;;;;;;5012085;28;20253;-77
2022/01/27 04:33:34;;;;;;;0.70;0.70;;;2.30;99.90;;;;;;5013790;28;20199;-79
2022/01/27 04:36:05;;;;;;;0.60;0.60;;;2.30;99.90;;;;;;5015743;28;20245;-78
2022/01/27 04:38:38;;;;;;;0.60;0.60;;;2.30;99.90;;;;;;5013944;28;20295;-79
2022/01/27 04:41:22;;;;;;;0.60;0.60;;;2.30;99.90;;;;;;5015177;28;20191;-79
2022/01/27 04:43:56;;;;;;;0.63;0.63;;;2.20;99.90;;;;;;5013053;28;20246;-78
2022/01/27 04:46:33;;;;;;;0.50;0.50;;;2.30;99.90;;;;;;5011263;28;20675;-80
2022/01/27 04:49:02;;;;;;;0.70;0.70;;;2.30;99.90;;;;;;5001331;28;20234;-78
2022/01/27 04:51:29;;;;;;;0.52;0.52;;;2.30;99.90;;;;;;5012162;28;20203;-79
2022/01/27 04:54:04;;;;;;;0.50;0.50;;;2.30;99.90;;;;;;5014076;28;20234;-79
2022/01/27 04:56:33;;;;;;;0.70;0.70;;;2.40;99.90;;;;;;5012313;28;20253;-79
2022/01/27 04:59:03;;;;;;;0.60;0.60;;;2.30;99.90;;;;;;5012656;28;20233;-78
2022/01/27 05:02:06;;;;;;;1.02;1.02;;;2.30;99.90;;;;;;5012235;28;20303;-77
2022/01/27 05:04:23;;;;;;;0.50;0.50;;;2.20;99.90;;;;;;5014538;28;20580;-79
2022/01/27 05:06:50;;;;;;;0.60;0.60;;;2.40;99.90;;;;;;5013602;28;20724;-79
2022/01/27 05:09:15;;;;;;;1.13;1.05;;;2.40;99.90;;;;;;5012899;28;20214;-78
2022/01/27 05:11:50;;;;;;;0.60;0.60;;;2.40;99.90;;;;;;5013047;28;20199;-77
2022/01/27 05:14:22;;;;;;;0.50;0.50;;;2.40;99.90;;;;;;4998109;28;20607;-78
2022/01/27 05:16:48;;;;;;;0.65;0.65;;;2.40;99.90;;;;;;5012066;28;20223;-79
2022/01/27 05:19:15;;;;;;;0.60;0.60;;;2.50;99.90;;;;;;5014566;28;20547;-78
2022/01/27 05:21:41;;;;;;;0.55;0.55;;;2.50;99.90;;;;;;4993544;28;20231;-77
2022/01/27 05:24:08;;;;;;;0.70;0.70;;;2.50;99.90;;;;;;4995200;28;20202;-78
2022/01/27 05:26:34;;;;;;;0.60;0.60;;;2.60;99.90;;;;;;5009504;28;20203;-79
2022/01/27 05:29:00;;;;;;;0.70;0.70;;;2.70;99.90;;;;;;5011379;28;20225;-78
2022/01/27 05:31:26;;;;;;;0.57;0.57;;;2.70;99.90;;;;;;5012204;28;20291;-77
2022/01/27 05:33:52;;;;;;;0.60;0.60;;;2.60;99.90;;;;;;5013609;28;20246;-79
2022/01/27 05:36:17;;;;;;;0.70;0.70;;;2.60;99.90;;;;;;5012978;28;20207;-77
2022/01/27 05:38:43;;;;;;;0.60;0.60;;;2.50;99.90;;;;;;5010352;28;20214;-78
2022/01/27 05:41:09;;;;;;;0.50;0.50;;;2.60;99.90;;;;;;5011916;28;20237;-78
2022/01/27 05:43:35;;;;;;;4.03;1.10;;;2.70;99.90;;;;;;5012142;28;20641;-78
2022/01/27 05:46:00;;;;;;;0.60;0.60;;;2.60;99.90;;;;;;5013222;28;20742;-78
2022/01/27 05:48:26;;;;;;;0.70;0.70;;;2.60;99.90;;;;;;5011653;28;20555;-78
2022/01/27 05:50:52;;;;;;;0.70;0.70;;;2.60;99.90;;;;;;5011594;28;20262;-78
2022/01/27 05:53:18;;;;;;;0.88;0.88;;;2.50;99.90;;;;;;5012019;28;20203;-79
2022/01/27 05:55:43;;;;;;;0.68;0.68;;;2.50;99.90;;;;;;5013674;28;20206;-78
2022/01/27 05:58:09;;;;;;;0.60;0.60;;;2.50;99.90;;;;;;5013866;28;20580;-78
2022/01/27 06:00:35;;;;;;;0.60;0.60;;;2.50;99.90;;;;;;5012172;28;20276;-79
2022/01/27 06:03:02;;;;;;;0.70;0.70;;;2.50;99.90;;;;;;5012313;28;20211;-78
2022/01/27 06:05:27;;;;;;;0.50;0.50;;;2.50;99.90;;;;;;5012170;28;20209;-78
2022/01/27 06:07:53;;;;;;;0.60;0.60;;;2.50;99.90;;;;;;5013747;28;20678;-79
2022/01/27 06:10:19;;;;;;;0.60;0.60;;;2.50;99.90;;;;;;5012911;28;20195;-79
2022/01/27 06:12:59;;;;;;;0.70;0.70;;;2.40;99.90;;;;;;5011689;28;20221;-78
2022/01/27 06:15:26;;;;;;;0.65;0.65;;;2.30;99.90;;;;;;5000148;28;20203;-81
2022/01/27 06:17:52;;;;;;;0.60;0.60;;;2.20;99.90;;;;;;5014568;28;20594;-79
2022/01/27 06:20:19;;;;;;;0.60;0.60;;;2.10;99.90;;;;;;5013550;28;20206;-80
2022/01/27 06:22:46;;;;;;;4.35;1.10;;;2.10;99.90;;;;;;5012750;28;20635;-79
2022/01/27 06:25:13;;;;;;;0.60;0.60;;;2.10;99.90;;;;;;5012847;28;20659;-81
2022/01/27 06:27:39;;;;;;;0.60;0.60;;;2.00;99.90;;;;;;5011841;28;20213;-80
2022/01/27 06:30:06;;;;;;;0.70;0.70;;;2.00;99.90;;;;;;5011410;28;20211;-78
2022/01/27 06:32:33;;;;;;;0.50;0.50;;;2.00;99.90;;;;;;5013919;28;20709;-79
2022/01/27 06:34:58;;;;;;;0.73;0.73;;;2.00;99.90;;;;;;5013347;28;20275;-81
2022/01/27 06:37:24;;;;;;;0.95;0.95;;;2.00;99.90;;;;;;5001383;28;20695;-81
2022/01/27 06:39:52;;;;;;;0.70;0.70;;;2.00;99.90;;;;;;5013543;28;20199;-79
2022/01/27 06:42:18;;;;;;;0.60;0.60;;;2.00;99.90;;;;;;5002665;28;20208;-78
2022/01/27 06:44:44;;;;;;;0.70;0.70;;;2.00;99.90;;;;;;5011164;28;20207;-78
2022/01/27 06:47:10;;;;;;;0.55;0.55;;;1.90;99.90;;;;;;5016100;28;20623;-78
2022/01/27 06:49:35;;;;;;;0.70;0.70;;;1.90;99.90;;;;;;5015815;28;20226;-80
2022/01/27 06:52:01;;;;;;;0.60;0.60;;;2.00;99.90;;;;;;5015867;28;20830;-77
2022/01/27 06:54:27;;;;;;;0.60;0.60;;;2.00;99.90;;;;;;5016036;28;20225;-77
2022/01/27 06:56:52;;;;;;;0.63;0.63;;;2.10;99.90;;;;;;5018802;28;20206;-80
2022/01/27 06:59:20;;;;;;;0.85;0.85;;;2.00;99.90;;;;;;5019853;28;20199;-80
2022/01/27 07:01:58;;;;;;;0.65;0.65;;;2.00;99.90;;;;;;5017631;28;20202;-79
2022/01/27 07:04:24;;;;;;;0.52;0.52;;;1.90;99.90;;;;;;5014973;28;20214;-77
2022/01/27 07:06:52;;;;;;;0.52;0.52;;;1.90;99.90;;;;;;5015476;28;20313;-78
2022/01/27 07:09:17;;;;;;;1.30;1.20;;;1.80;99.90;;;;;;5017356;28;20265;-79
2022/01/27 07:11:43;;;;;;;0.70;0.70;;;1.80;99.90;;;;;;5016451;28;20773;-79
2022/01/27 07:14:09;;;;;;;0.65;0.65;;;1.80;99.90;;;;;;5013861;28;20560;-80
2022/01/27 07:16:35;;;;;;;0.70;0.70;;;1.80;99.90;;;;;;5014592;28;20307;-79
2022/01/27 07:19:00;;;;;;;0.60;0.60;;;1.80;99.90;;;;;;5011419;28;20211;-79
2022/01/27 07:21:26;;;;;;;0.80;0.80;;;1.70;99.90;;;;;;5023031;28;20208;-79
2022/01/27 07:23:52;;;;;;;0.57;0.57;;;1.70;99.90;;;;;;5017913;28;20246;-79
2022/01/27 07:26:24;;;;;;;0.60;0.60;;;1.70;99.90;;;;;;5022557;28;20412;-79
2022/01/27 07:28:51;;;;;;;0.45;0.45;;;1.80;99.90;;;;;;5019573;28;20210;-79
2022/01/27 07:31:17;;;;;;;0.50;0.50;;;1.80;99.90;;;;;;5018876;28;20690;-79
2022/01/27 07:33:43;;;;;;;0.50;0.50;;;1.80;99.90;;;;;;5019150;28;20213;-79
2022/01/27 07:36:08;;;;;;;0.60;0.60;;;1.90;99.90;;;;;;5022648;28;20202;-80
2022/01/27 07:38:34;;;;;;;0.70;0.70;;;1.90;99.90;;;;;;5018393;28;20583;-79
2022/01/27 07:41:00;;;;;;;0.70;0.70;;;1.90;99.90;;;;;;5017678;28;20622;-79
2022/01/27 07:43:25;;;;;;;0.68;0.68;;;1.90;99.90;;;;;;5016762;28;20697;-78
2022/01/27 07:45:51;;;;;;;0.55;0.55;;;1.90;99.90;;;;;;5020296;28;20712;-79
2022/01/27 07:48:17;;;;;;;0.70;0.70;;;2.00;99.90;;;;;;5017617;28;20333;-78
2022/01/27 07:50:44;;;;;;;0.63;0.63;;;2.00;99.90;;;;;;5022694;28;20315;-78
2022/01/27 07:53:09;;;;;;;0.68;0.68;;;2.00;99.90;;;;;;5019800;28;20199;-79
2022/01/27 07:55:35;;;;;;;0.50;0.50;;;1.90;99.90;;;;;;5014616;28;20252;-79
2022/01/27 07:58:01;;;;;;;0.60;0.60;;;2.00;99.90;;;;;;5012515;28;20195;-78
2022/01/27 08:00:27;;;;;;;0.60;0.60;;;1.90;99.90;;;;;;5013314;28;20206;-77
2022/01/27 08:02:52;;;;;;;0.70;0.70;;;2.00;99.90;;;;;;5013333;28;20564;-77
2022/01/27 08:05:18;;;;;;;1.40;1.33;;;2.00;99.90;;;;;;5012156;28;20204;-78
2022/01/27 08:07:44;;;;;;;0.40;0.40;;;2.00;99.90;;;;;;5012993;28;20253;-79
2022/01/27 08:10:10;;;;;;;1.85;1.67;;;2.10;99.90;;;;;;5013076;28;20206;-82
2022/01/27 08:12:43;;;;;;;0.63;0.63;;;2.20;99.90;;;;;;4996048;28;20226;-77
2022/01/27 08:15:11;;;;;;;0.50;0.50;;;2.30;99.90;;;;;;5028557;28;20199;-78
2022/01/27 08:17:38;;;;;;;0.52;0.52;;;2.30;99.90;;;;;;4996388;28;20231;-79
2022/01/27 08:20:04;;;;;;;0.80;0.80;;;2.30;99.90;;;;;;5012336;28;20574;-77
2022/01/27 08:22:29;;;;;;;0.60;0.60;;;2.40;99.90;;;;;;5011213;28;20210;-78
2022/01/27 08:24:55;;;;;;;0.70;0.70;;;2.30;99.90;;;;;;5013038;28;20280;-77
2022/01/27 08:27:26;;;;;;;0.50;0.50;;;2.30;99.90;;;;;;5013010;28;20223;-77
2022/01/27 08:29:57;;;;;;;1.40;1.30;;;2.20;99.90;;;;;;5012671;28;20587;-77
2022/01/27 08:32:32;;;;;;;0.50;0.50;;;2.20;99.90;;;;;;5011908;28;20203;-76
2022/01/27 08:34:58;;;;;;;0.60;0.60;;;2.20;99.90;;;;;;5000111;28;20584;-77
2022/01/27 08:37:24;;;;;;;0.70;0.70;;;2.20;99.90;;;;;;5007325;28;20210;-77
2022/01/27 08:39:49;;;;;;;0.50;0.50;;;2.20;99.90;;;;;;5012791;28;20213;-77
2022/01/27 08:42:16;;;;;;;0.80;0.80;;;2.30;99.90;;;;;;5014480;28;20207;-79
2022/01/27 08:44:41;;;;;;;1.00;1.00;;;2.30;99.90;;;;;;5013383;28;20206;-78
2022/01/27 08:47:11;;;;;;;2.10;1.50;;;2.40;99.90;;;;;;5012414;28;20297;-81
2022/01/27 08:52:35;;;;;;;1.75;1.42;;;2.50;99.90;;;;;;5018143;28;20218;-83
2022/01/27 08:55:02;;;;;;;10.25;2.00;;;2.60;99.90;;;;;;5015713;28;20274;-79
2022/01/27 08:57:28;;;;;;;0.70;0.70;;;2.50;99.90;;;;;;5006598;28;20214;-80
2022/01/27 08:59:53;;;;;;;0.50;0.50;;;2.50;99.90;;;;;;5004977;28;20206;-79
2022/01/27 09:02:20;;;;;;;0.80;0.80;;;2.40;99.90;;;;;;5013719;28;20245;-79
2022/01/27 09:04:47;;;;;;;1.63;1.52;;;2.60;99.90;;;;;;5012264;28;20729;-78
2022/01/27 09:07:15;;;;;;;0.60;0.60;;;2.60;99.90;;;;;;5007274;28;20705;-80
2022/01/27 09:09:43;;;;;;;0.65;0.65;;;2.60;99.90;;;;;;5002297;28;20666;-78
2022/01/27 09:12:11;;;;;;;0.95;0.95;;;2.70;99.90;;;;;;5014120;28;20241;-79
2022/01/27 09:14:40;;;;;;;0.85;0.85;;;2.70;99.90;;;;;;5014487;28;20198;-79
2022/01/27 09:17:12;;;;;;;0.50;0.50;;;2.70;99.90;;;;;;5014165;28;20198;-81
2022/01/27 09:19:40;;;;;;;0.60;0.60;;;2.70;99.90;;;;;;5013968;28;20206;-78
2022/01/27 09:22:12;;;;;;;0.60;0.60;;;2.70;99.90;;;;;;4999827;28;20206;-79
2022/01/27 09:24:56;;;;;;;0.55;0.55;;;2.70;99.90;;;;;;5015004;28;20250;-80
2022/01/27 09:27:23;;;;;;;0.60;0.60;;;2.70;99.90;;;;;;5013068;28;20606;-78
2022/01/27 09:29:49;;;;;;;0.60;0.60;;;2.60;99.90;;;;;;5012975;28;20198;-78
2022/01/27 09:32:15;;;;;;;0.70;0.70;;;2.60;99.90;;;;;;5013089;28;20249;-79
2022/01/27 09:34:42;;;;;;;0.60;0.60;;;2.60;99.90;;;;;;5014743;28;20729;-79
2022/01/27 09:37:08;;;;;;;0.75;0.75;;;2.70;99.90;;;;;;5013656;28;20199;-80
2022/01/27 09:39:34;;;;;;;0.50;0.50;;;2.70;99.90;;;;;;5012932;28;20207;-78
2022/01/27 09:42:02;;;;;;;0.60;0.60;;;2.70;99.90;;;;;;5013802;28;20670;-80
2022/01/27 09:44:31;;;;;;;0.50;0.50;;;2.70;99.90;;;;;;5013658;28;20206;-82
2022/01/27 09:47:01;;;;;;;2.35;0.90;;;2.70;99.90;;;;;;5013522;28;20714;-79
2022/01/27 09:49:37;;;;;;;0.50;0.50;;;2.80;99.90;;;;;;5010818;28;20250;-78
2022/01/27 09:52:04;;;;;;;0.60;0.60;;;2.90;99.90;;;;;;5011832;28;20293;-80
2022/01/27 09:54:31;;;;;;;0.55;0.55;;;3.00;99.90;;;;;;5010723;28;20234;-80
2022/01/27 09:56:57;;;;;;;1.45;1.35;;;3.10;99.90;;;;;;5012401;28;20202;-79
2022/01/27 09:59:23;;;;;;;0.70;0.70;;;3.10;99.90;;;;;;5010136;28;20259;-79
2022/01/27 10:02:14;;;;;;;0.70;0.70;;;3.10;99.90;;;;;;5012902;28;20225;-79
2022/01/27 10:04:43;;;;;;;0.75;0.75;;;3.10;99.90;;;;;;5014467;28;20229;-82
2022/01/27 10:07:11;;;;;;;0.60;0.60;;;3.10;99.90;;;;;;5013392;28;20211;-80
2022/01/27 10:09:36;;;;;;;0.50;0.50;;;3.20;99.90;;;;;;5014740;28;20211;-81
2022/01/27 10:12:05;;;;;;;0.50;0.50;;;3.10;99.90;;;;;;5016878;28;20219;-79
2022/01/27 10:14:37;;;;;;;0.60;0.60;;;3.10;99.90;;;;;;5016797;28;20261;-80
2022/01/27 10:17:14;;;;;;;0.70;0.70;;;3.10;99.90;;;;;;5019228;28;20257;-80
2022/01/27 10:19:40;;;;;;;0.70;0.70;;;3.10;99.90;;;;;;5014367;28;20237;-79
2022/01/27 10:22:13;;;;;;;0.50;0.50;;;3.00;99.90;;;;;;5014861;28;20674;-78
2022/01/27 10:24:39;;;;;;;0.60;0.60;;;3.00;99.90;;;;;;5015217;28;20238;-78
2022/01/27 10:32:46;;;;;;;0.60;0.60;;;3.20;99.90;;;;;;5014306;28;20199;-77
2022/01/27 10:35:14;;;;;;;0.63;0.63;;;3.40;99.90;;;;;;5014455;28;20215;-77
2022/01/27 10:38:00;;;;;;;0.55;0.55;;;3.60;99.90;;;;;;5014119;28;20579;-78
2022/01/27 10:40:44;;;;;;;0.60;0.60;;;3.80;99.90;;;;;;5013573;28;20198;-78
2022/01/27 10:43:24;;;;;;;5.43;1.90;;;4.20;99.90;;;;;;5013760;28;20670;-77
2022/01/27 10:46:06;;;;;;;16.88;2.67;;;4.60;99.90;;;;;;4997018;28;20551;-77
2022/01/27 10:48:33;;;;;;;0.60;0.60;;;4.80;99.90;;;;;;5014045;28;20269;-77
2022/01/27 10:51:15;;;;;;;0.70;0.70;;;4.70;99.90;;;;;;5015078;28;20610;-76
2022/01/27 10:53:54;;;;;;;0.70;0.70;;;4.60;99.90;;;;;;5012669;28;20373;-75
2022/01/27 10:56:23;;;;;;;0.60;0.60;;;4.50;99.90;;;;;;5013896;28;20225;-77
2022/01/27 10:58:49;;;;;;;1.00;0.95;;;4.50;99.90;;;;;;5015340;28;20207;-77
2022/01/27 11:01:42;;;;;;;0.70;0.70;;;4.50;99.90;;;;;;5012243;28;20259;-76
2022/01/27 11:04:10;;;;;;;0.70;0.70;;;4.30;99.90;;;;;;5015561;28;20214;-75
2022/01/27 11:06:37;;;;;;;1.00;1.00;;;4.20;99.90;;;;;;5013562;28;20348;-78
2022/01/27 11:09:10;;;;;;;2.67;1.55;;;4.20;99.90;;;;;;5013483;28;20218;-77
2022/01/27 11:11:40;;;;;;;1.52;1.42;;;4.10;99.90;;;;;;5010102;28;20200;-76
2022/01/27 11:14:06;;;;;;;0.70;0.70;;;4.20;99.90;;;;;;5018780;28;20234;-77
2022/01/27 11:16:43;;;;;;;0.90;0.90;;;4.20;99.90;;;;;;5014523;28;20693;-78
2022/01/27 11:21:42;;;;;;;1.52;1.42;;;3.90;99.90;;;;;;5016025;28;20202;-83
2022/01/27 11:24:24;;;;;;;0.68;0.68;;;3.80;99.90;;;;;;5016100;28;20242;-81
2022/01/27 11:26:53;;;;;;;0.70;0.70;;;3.80;99.90;;;;;;5010080;28;20210;-78
2022/01/27 11:29:20;;;;;;;0.60;0.60;;;3.70;99.90;;;;;;5018774;28;20223;-80
2022/01/27 11:31:52;;;;;;;0.73;0.73;;;3.70;99.90;;;;;;5017391;28;20191;-80
2022/01/27 11:34:18;;;;;;;0.50;0.50;;;3.60;99.90;;;;;;5014917;28;20293;-81
2022/01/27 11:37:10;;;;;;;0.60;0.60;;;3.80;99.90;;;;;;5017061;28;20271;-79
2022/01/27 11:39:54;;;;;;;0.70;0.70;;;3.80;99.90;;;;;;5013247;28;20574;-79
2022/01/27 11:42:35;;;;;;;0.80;0.80;;;3.80;99.90;;;;;;5015609;28;20209;-81
2022/01/27 11:45:26;;;;;;;0.52;0.52;;;3.70;99.90;;;;;;5004070;28;20704;-81
2022/01/27 11:47:53;;;;;;;0.68;0.68;;;3.70;99.90;;;;;;5010124;28;20678;-80
2022/01/27 11:50:35;;;;;;;0.50;0.50;;;3.70;99.90;;;;;;5016668;28;20288;-81
2022/01/27 11:53:14;;;;;;;0.70;0.70;;;3.70;99.90;;;;;;5017873;28;20199;-84
2022/01/27 11:55:44;;;;;;;0.65;0.65;;;3.70;99.90;;;;;;5034535;28;20199;-82
2022/01/27 11:58:25;;;;;;;0.70;0.70;;;3.60;99.90;;;;;;5019971;28;20207;-82
2022/01/27 12:01:10;;;;;;;0.60;0.60;;;3.60;99.90;;;;;;5015970;28;20226;-80
2022/01/27 12:03:38;;;;;;;0.60;0.60;;;3.70;99.90;;;;;;5015923;28;20191;-82
2022/01/27 12:06:14;;;;;;;0.60;0.60;;;3.70;99.90;;;;;;5014982;28;20642;-80
2022/01/27 12:08:52;;;;;;;0.80;0.80;;;3.70;99.90;;;;;;5014679;28;20214;-81
2022/01/27 12:11:50;;;;;;;18.35;1.88;;;3.90;99.90;;;;;;5015031;28;20705;-83
2022/01/27 12:14:21;;;;;;;0.60;0.60;;;4.20;99.90;;;;;;5030460;28;20210;-84
2022/01/27 12:17:09;;;;;;;0.60;0.60;;;4.30;99.90;;;;;;5017186;28;20199;-84
2022/01/27 12:19:50;;;;;;;0.98;0.98;;;4.50;99.90;;;;;;5018150;28;20233;-81
2022/01/27 12:22:16;;;;;;;0.57;0.57;;;4.60;99.90;;;;;;5016411;28;20214;-81
2022/01/27 12:24:51;;;;;;;0.70;0.70;;;4.60;99.90;;;;;;5016814;28;20237;-81
2022/01/27 12:27:18;;;;;;;4.60;2.25;;;4.60;99.90;;;;;;5016813;28;20213;-82
2022/01/27 12:29:52;;;;;;;0.70;0.70;;;4.70;99.90;;;;;;5014815;28;20298;-80
2022/01/27 12:32:20;;;;;;;5.38;1.42;;;4.80;99.90;;;;;;5015577;28;20665;-80
2022/01/27 12:34:57;;;;;;;0.80;0.80;;;4.80;99.90;;;;;;5014509;28;20574;-79
2022/01/27 12:37:25;;;;;;;0.80;0.80;;;4.80;99.90;;;;;;4999823;28;20229;-79
2022/01/27 12:40:00;;;;;;;0.60;0.60;;;4.90;99.90;;;;;;5011942;28;20213;-80
2022/01/27 12:42:34;;;;;;;0.68;0.68;;;5.00;99.90;;;;;;5014361;28;20206;-81
2022/01/27 12:45:06;;;;;;;0.60;0.60;;;5.10;99.90;;;;;;5018111;28;20226;-80
2022/01/27 12:47:32;;;;;;;1.52;1.42;;;5.10;99.90;;;;;;5012871;28;20672;-81
2022/01/27 12:50:09;;;;;;;0.60;0.60;;;5.10;99.90;;;;;;4998647;28;20336;-81
2022/01/27 12:52:40;;;;;;;0.63;0.63;;;5.20;99.90;;;;;;5015359;28;20227;-81
2022/01/27 12:55:08;;;;;;;0.60;0.60;;;5.10;99.90;;;;;;5013723;28;20580;-82
2022/01/27 12:57:34;;;;;;;1.05;1.05;;;5.00;99.90;;;;;;5013145;28;20226;-79
2022/01/27 13:01:21;;;;;;;0.60;0.60;;;4.90;99.90;;;;;;5014336;28;20207;-84
2022/01/27 13:03:40;;;;;;;0.60;0.60;;;4.80;99.90;;;;;;4976324;28;20215;-79
2022/01/27 13:06:06;;;;;;;0.70;0.70;;;4.70;99.90;;;;;;5005086;28;20690;-79
2022/01/27 13:08:34;;;;;;;0.60;0.60;;;4.70;99.90;;;;;;5012738;28;20281;-80
2022/01/27 13:11:09;;;;;;;0.70;0.70;;;4.60;99.90;;;;;;5023407;28;20202;-80
2022/01/27 13:13:38;;;;;;;0.80;0.80;;;4.50;99.90;;;;;;5017373;28;20249;-84
2022/01/27 13:16:14;;;;;;;0.90;0.90;;;4.40;99.90;;;;;;5014340;28;20655;-83
2022/01/27 13:21:16;;;;;;;0.60;0.60;;;4.40;99.90;;;;;;5015274;28;20241;-78
2022/01/27 13:23:46;;;;;;;0.70;0.70;;;4.50;99.90;;;;;;5015083;28;20202;-80
2022/01/27 13:26:15;;;;;;;0.82;0.82;;;4.50;99.90;;;;;;5018404;28;20206;-82
2022/01/27 13:28:43;;;;;;;0.50;0.50;;;4.50;99.90;;;;;;5016169;28;20213;-83
2022/01/27 13:31:12;;;;;;;0.50;0.50;;;4.60;99.90;;;;;;5013970;28;20678;-80
2022/01/27 13:33:44;;;;;;;1.17;1.17;;;4.60;99.90;;;;;;5013590;28;20202;-80
2022/01/27 13:36:21;;;;;;;0.70;0.70;;;4.60;99.90;;;;;;5011692;28;20575;-80
2022/01/27 13:39:01;;;;;;;0.80;0.80;;;4.50;99.90;;;;;;5012277;28;20206;-80
2022/01/27 13:41:28;;;;;;;0.80;0.80;;;4.40;99.90;;;;;;5012288;28;20194;-80
2022/01/27 13:44:09;;;;;;;0.60;0.60;;;4.20;99.90;;;;;;5014511;28;20741;-82
2022/01/27 13:47:04;;;;;;;0.50;0.50;;;4.10;99.90;;;;;;5013391;28;20274;-82
2022/01/27 13:49:35;;;;;;;4.72;2.15;;;4.10;99.90;;;;;;5014111;28;20284;-85
2022/01/27 13:52:12;;;;;;;1.52;1.42;;;4.20;99.90;;;;;;5015156;28;20222;-84
2022/01/27 13:54:49;;;;;;;0.50;0.50;;;4.20;99.90;;;;;;5014314;28;20252;-80
2022/01/27 13:57:35;;;;;;;0.60;0.60;;;4.20;99.90;;;;;;5015231;28;20202;-84
2022/01/27 14:00:12;;;;;;;0.60;0.60;;;4.40;99.90;;;;;;5014372;28;20202;-81